Oski — WYD3004 — position and weather

sailwx.info

Track history (hours):
 
Tides and Currents Weather Stations Pressure Air Temp Water Temp Dewpoint Dewpoint Depression Visibility Wind Speed Wind Dir Waves Ship Positions

Oski

Owner: BLUE & GOLD FLEET, SAN FRANCISCO, CA. More information available from US FCC via Universal Licensing System and Coast Guard Vessel Documentation Center.

Last reported at 2015-Feb-27 16:33 UTC. Time now 2015-Mar-03 22:37 UTC.
Position N 37°47' W 122°17'.

Length 24 m; draft 2 m.

Type: Passenger vessel. MMSI: 366985320.

Date/timePositionNaut miles runAvg speedWind from/ knotsBaromVisibWave heightAir tempDewpointWater temp
2015-Feb-27 16:33N 37°47' W 122°17'0 0.1
2015-Feb-27 15:34N 37°48' W 122°17'6 5.8
2015-Feb-27 14:34N 37°49' W 122°25'0 0.0
2015-Feb-27 01:24N 37°49' W 122°25'0 0.2
2015-Feb-27 00:34N 37°49' W 122°25'2 2.4
2015-Feb-26 23:34N 37°49' W 122°28'2 2.4
2015-Feb-26 22:33N 37°49' W 122°25'3 2.8
2015-Feb-26 21:33N 37°49' W 122°28'3 2.8
2015-Feb-26 20:34N 37°49' W 122°25'1 0.5
2015-Feb-26 19:34N 37°49' W 122°25'3 3.0
2015-Feb-26 18:33N 37°49' W 122°29'3 0.2
2015-Feb-26 00:17N 37°49' W 122°25'3 4.8
2015-Feb-25 23:33N 37°51' W 122°28'0 0.3
2015-Feb-25 22:33N 37°51' W 122°28'4 3.6
2015-Feb-25 21:34N 37°49' W 122°25'2 1.5
2015-Feb-25 20:34N 37°50' W 122°26'2 1.6
2015-Feb-25 19:34N 37°49' W 122°25'0 0.0
2015-Feb-25 18:33N 37°49' W 122°25'  
2015-Feb-23 01:33N 37°50' W 122°27'2 1.8
2015-Feb-23 00:34N 37°49' W 122°25'0 0.1
2015-Feb-22 23:34N 37°49' W 122°25'3 2.8
2015-Feb-22 22:33N 37°49' W 122°28'3 2.8
2015-Feb-22 21:33N 37°49' W 122°25'3 2.5
2015-Feb-22 20:33N 37°49' W 122°28'1 1.3
2015-Feb-22 19:33N 37°50' W 122°27'2 2.0
2015-Feb-22 18:34N 37°49' W 122°25'0 0.0
2015-Feb-21 01:30N 37°49' W 122°25'0 0.1
2015-Feb-21 00:34N 37°49' W 122°25'3 2.8
2015-Feb-20 23:33N 37°49' W 122°28'3 2.8
2015-Feb-20 22:33N 37°49' W 122°25'3 2.8
2015-Feb-20 21:33N 37°49' W 122°28'3 2.9
2015-Feb-20 20:33N 37°49' W 122°24'1 0.6
2015-Feb-20 19:33N 37°49' W 122°25'2 2.1
2015-Feb-20 18:34N 37°49' W 122°27'2 2.1
2015-Feb-20 17:33N 37°49' W 122°25'  
Track history (hours):
 
Tides and Currents Weather Stations Pressure Air Temp Water Temp Dewpoint Dewpoint Depression Visibility Wind Speed Wind Dir Waves Ship Positions

Oski

Owner: BLUE & GOLD FLEET, SAN FRANCISCO, CA. More information available from US FCC via Universal Licensing System and Coast Guard Vessel Documentation Center.

Last reported at 2015-Feb-27 16:33 UTC. Time now 2015-Mar-03 22:37 UTC.
Position N 37°47' W 122°17'.

Length 24 m; draft 2 m.

Type: Passenger vessel. MMSI: 366985320.

Date/timePositionNaut miles runAvg speedWind from/ knotsBaromVisibWave heightAir tempDewpointWater temp
2015-Feb-27 16:33N 37°47' W 122°17'0 0.1
2015-Feb-27 15:34N 37°48' W 122°17'6 5.8
2015-Feb-27 14:34N 37°49' W 122°25'0 0.0
2015-Feb-27 01:24N 37°49' W 122°25'0 0.2
2015-Feb-27 00:34N 37°49' W 122°25'2 2.4
2015-Feb-26 23:34N 37°49' W 122°28'2 2.4
2015-Feb-26 22:33N 37°49' W 122°25'3 2.8
2015-Feb-26 21:33N 37°49' W 122°28'3 2.8
2015-Feb-26 20:34N 37°49' W 122°25'1 0.5
2015-Feb-26 19:34N 37°49' W 122°25'3 3.0
2015-Feb-26 18:33N 37°49' W 122°29'3 0.2
2015-Feb-26 00:17N 37°49' W 122°25'3 4.8
2015-Feb-25 23:33N 37°51' W 122°28'0 0.3
2015-Feb-25 22:33N 37°51' W 122°28'4 3.6
2015-Feb-25 21:34N 37°49' W 122°25'2 1.5
2015-Feb-25 20:34N 37°50' W 122°26'2 1.6
2015-Feb-25 19:34N 37°49' W 122°25'0 0.0
2015-Feb-25 18:33N 37°49' W 122°25'  
2015-Feb-23 01:33N 37°50' W 122°27'2 1.8
2015-Feb-23 00:34N 37°49' W 122°25'0 0.1
2015-Feb-22 23:34N 37°49' W 122°25'3 2.8
2015-Feb-22 22:33N 37°49' W 122°28'3 2.8
2015-Feb-22 21:33N 37°49' W 122°25'3 2.5
2015-Feb-22 20:33N 37°49' W 122°28'1 1.3
2015-Feb-22 19:33N 37°50' W 122°27'2 2.0
2015-Feb-22 18:34N 37°49' W 122°25'0 0.0
2015-Feb-21 01:30N 37°49' W 122°25'0 0.1
2015-Feb-21 00:34N 37°49' W 122°25'3 2.8
2015-Feb-20 23:33N 37°49' W 122°28'3 2.8
2015-Feb-20 22:33N 37°49' W 122°25'3 2.8
2015-Feb-20 21:33N 37°49' W 122°28'3 2.9
2015-Feb-20 20:33N 37°49' W 122°24'1 0.6
2015-Feb-20 19:33N 37°49' W 122°25'2 2.1
2015-Feb-20 18:34N 37°49' W 122°27'2 2.1
2015-Feb-20 17:33N 37°49' W 122°25'  

Dump ship's entire track history